createdAt,value
2022-09-05T00:04:28.839Z,11.33
2022-09-05T00:12:38.499Z,10.45
2022-09-05T00:24:37.609Z,10.27
2022-09-05T00:30:23.523Z,16.45
2022-09-05T00:37:58.430Z,14.90
2022-09-05T00:46:10.622Z,10.23
2022-09-05T00:54:41.033Z,14.38
2022-09-05T01:03:20.907Z,11.10
2022-09-05T01:11:40.898Z,12.88
2022-09-05T01:20:19.047Z,13.13
2022-09-05T01:29:15.492Z,15.63
2022-09-05T01:37:06.199Z,17.30
2022-09-05T01:45:21.786Z,18.27
2022-09-05T01:53:41.830Z,20.10
2022-09-05T02:02:13.740Z,15.82
2022-09-05T02:10:39.902Z,19.13
2022-09-05T02:18:57.561Z,15.98
2022-09-05T02:27:45.857Z,20.40
2022-09-05T02:36:07.655Z,15.68
2022-09-05T02:45:08.327Z,18.08
2022-09-05T02:57:27.198Z,15.45
2022-09-05T03:01:16.975Z,6.60
2022-09-05T03:09:39.674Z,9.40
2022-09-05T03:18:23.677Z,5.50
2022-09-05T03:26:46.227Z,8.65
2022-09-05T03:35:32.107Z,11.93
2022-09-05T03:44:16.651Z,16.05
2022-09-05T03:57:14.074Z,15.57
2022-09-05T04:01:58.890Z,18.15
2022-09-05T04:09:50.941Z,19.08
2022-09-05T04:18:03.771Z,15.15
2022-09-05T04:26:23.169Z,18.57
2022-09-05T04:34:49.906Z,20.63
2022-09-05T04:42:56.826Z,16.88
2022-09-05T04:51:13.298Z,21.30
2022-09-05T05:03:29.906Z,13.82
2022-09-05T05:17:55.226Z,16.20
2022-09-05T05:24:45.096Z,19.48
2022-09-05T05:32:53.291Z,16.05
2022-09-05T05:41:10.958Z,18.38
2022-09-05T05:49:42.346Z,22.02
2022-09-05T05:58:20.746Z,15.88
2022-09-05T06:06:47.393Z,13.52
2022-09-05T06:15:44.112Z,13.35
2022-09-05T06:24:27.966Z,11.10
2022-09-05T06:33:00.395Z,10.70
2022-09-05T06:41:25.563Z,10.67
2022-09-05T06:49:55.328Z,10.27
2022-09-05T06:58:31.183Z,9.10
2022-09-05T07:07:02.373Z,11.85
2022-09-05T07:15:21.334Z,8.25
2022-09-05T07:23:52.740Z,9.20
2022-09-05T07:32:22.422Z,6.10
2022-09-05T07:40:35.384Z,6.47
2022-09-05T07:48:45.000Z,5.03
2022-09-05T07:57:25.504Z,7.03
2022-09-05T08:05:34.541Z,4.97
2022-09-05T08:14:06.632Z,6.13
2022-09-05T08:22:25.164Z,5.25
2022-09-05T08:30:40.793Z,3.47
2022-09-05T08:38:47.693Z,3.05
2022-09-05T08:47:03.156Z,4.47
2022-09-05T08:55:19.329Z,4.07
2022-09-05T09:03:32.623Z,4.25
2022-09-05T09:11:46.292Z,3.30
2022-09-05T09:20:07.765Z,5.85
2022-09-05T09:28:47.728Z,3.10
2022-09-05T09:37:31.966Z,7.78
2022-09-05T09:46:19.014Z,4.43
2022-09-05T09:54:57.228Z,1.60
2022-09-05T10:10:34.136Z,3.40
2022-09-05T10:12:20.930Z,1.63
2022-09-05T10:21:16.709Z,2.15
2022-09-05T10:29:46.323Z,3.40
2022-09-05T10:38:10.249Z,3.90
2022-09-05T10:46:49.451Z,2.55
2022-09-05T10:55:27.933Z,2.03
2022-09-05T11:11:49.811Z,1.52
2022-09-05T11:20:27.676Z,1.58
2022-09-05T11:28:57.573Z,1.98
2022-09-05T11:39:52.868Z,3.97
2022-09-05T11:46:15.883Z,7.63
2022-09-05T11:54:55.072Z,1.73
2022-09-05T12:03:59.493Z,1.57
2022-09-05T12:12:41.264Z,2.75
2022-09-05T12:21:01.927Z,1.85
2022-09-05T12:29:33.553Z,3.03
2022-09-05T12:40:52.913Z,2.35
2022-09-05T12:46:24.797Z,2.63
2022-09-05T12:54:36.356Z,1.95
2022-09-05T13:03:13.607Z,2.80
2022-09-05T13:14:58.327Z,2.35
2022-09-05T13:19:51.551Z,1.65
2022-09-05T13:28:05.195Z,3.28
2022-09-05T13:38:21.303Z,3.22
2022-09-05T13:44:46.604Z,1.85
2022-09-05T13:52:59.897Z,2.10
2022-09-05T14:01:32.239Z,4.22
2022-09-05T14:18:22.286Z,3.80
2022-09-05T14:26:32.744Z,2.63
2022-09-05T14:37:43.862Z,3.30
2022-09-05T14:43:43.180Z,3.85
2022-09-05T14:51:54.993Z,4.50
2022-09-05T15:02:52.712Z,3.08
2022-09-05T15:10:54.585Z,2.63
2022-09-05T15:17:05.888Z,5.07
2022-09-05T15:25:21.711Z,5.97
2022-09-05T15:33:28.797Z,3.85
2022-09-05T15:41:43.281Z,7.38
2022-09-05T15:49:55.963Z,3.95
2022-09-05T15:58:07.638Z,4.40
2022-09-05T16:10:35.149Z,5.07
2022-09-05T16:16:33.699Z,3.33
2022-09-05T16:23:40.618Z,5.35
2022-09-05T16:31:55.809Z,8.40
2022-09-05T16:40:08.655Z,6.95
2022-09-05T16:48:33.224Z,8.45
2022-09-05T16:56:41.700Z,7.78
2022-09-05T17:05:04.484Z,7.38
2022-09-05T17:13:16.769Z,9.20
2022-09-05T17:21:45.524Z,9.90
2022-09-05T17:31:14.488Z,7.95
2022-09-05T17:39:03.951Z,7.13
2022-09-05T17:47:16.078Z,8.30
2022-09-05T17:55:21.719Z,11.13
2022-09-05T18:04:17.082Z,12.77
2022-09-05T18:13:14.254Z,14.15
2022-09-05T18:21:12.186Z,10.73
2022-09-05T18:38:27.531Z,8.35
2022-09-05T18:46:58.569Z,9.80
2022-09-05T18:55:07.954Z,10.02
2022-09-05T19:03:38.626Z,7.95
2022-09-05T19:11:53.903Z,12.45
2022-09-05T19:20:31.237Z,9.95
2022-09-05T19:36:59.060Z,4.13
2022-09-05T19:37:38.580Z,6.22
2022-09-05T19:47:48.314Z,7.05
2022-09-05T19:54:06.064Z,6.47
2022-09-05T20:02:20.234Z,7.47
2022-09-05T20:10:31.749Z,6.05
2022-09-05T20:18:43.039Z,6.88
2022-09-05T20:26:51.709Z,6.65
2022-09-05T20:40:25.415Z,5.40
2022-09-05T20:43:57.998Z,4.95
2022-09-05T20:54:15.236Z,7.03
2022-09-05T21:00:34.269Z,4.70
2022-09-05T21:08:40.420Z,8.85
2022-09-05T21:16:50.510Z,5.65
2022-09-05T21:25:11.807Z,5.65
2022-09-05T21:33:44.472Z,5.47
2022-09-05T21:41:53.231Z,7.47
2022-09-05T21:50:30.533Z,6.03
2022-09-05T21:59:24.054Z,6.25
2022-09-05T22:07:07.226Z,4.82
2022-09-05T22:15:27.470Z,7.57
2022-09-05T22:23:38.652Z,5.20
2022-09-05T22:31:44.073Z,9.13
2022-09-05T22:39:52.244Z,8.77
2022-09-05T22:47:57.969Z,5.25
2022-09-05T22:56:08.716Z,8.52
2022-09-05T23:04:14.130Z,8.02
2022-09-05T23:12:22.188Z,5.15
2022-09-05T23:20:29.844Z,6.45
2022-09-05T23:28:42.689Z,4.80
2022-09-05T23:44:56.273Z,9.90
2022-09-05T23:53:06.643Z,5.60
